createdAt,value
2018-01-18T00:00:16.743Z,971.08
2018-01-18T00:01:16.737Z,971.04
2018-01-18T00:02:16.724Z,971.07
2018-01-18T00:03:16.717Z,971.02
2018-01-18T00:04:16.717Z,971.06
2018-01-18T00:05:16.700Z,970.96
2018-01-18T00:06:16.687Z,971.00
2018-01-18T00:07:16.692Z,971.02
2018-01-18T00:08:16.673Z,971.02
2018-01-18T00:09:16.665Z,970.98
2018-01-18T00:10:16.658Z,970.96
2018-01-18T00:11:16.655Z,970.97
2018-01-18T00:12:16.648Z,970.94
2018-01-18T00:13:16.640Z,970.86
2018-01-18T00:14:16.647Z,970.94
2018-01-18T00:15:16.614Z,970.83
2018-01-18T00:16:16.609Z,970.83
2018-01-18T00:17:16.599Z,970.84
2018-01-18T00:18:16.587Z,970.84
2018-01-18T00:19:16.580Z,970.88
2018-01-18T00:20:16.567Z,970.83
2018-01-18T00:21:16.597Z,970.84
2018-01-18T00:22:16.552Z,970.83
2018-01-18T00:23:16.542Z,970.84
2018-01-18T00:24:16.537Z,970.91
2018-01-18T00:25:16.527Z,970.86
2018-01-18T00:26:16.526Z,970.88
2018-01-18T00:27:16.517Z,970.81
2018-01-18T00:28:16.515Z,970.90
2018-01-18T00:29:16.500Z,970.96
2018-01-18T00:30:16.498Z,970.93
2018-01-18T00:31:16.500Z,970.94
2018-01-18T00:32:16.498Z,970.97
2018-01-18T00:33:16.458Z,970.99
2018-01-18T00:34:16.455Z,970.98
2018-01-18T00:35:16.449Z,971.00
2018-01-18T00:36:16.436Z,971.06
2018-01-18T00:37:16.424Z,971.12
2018-01-18T00:38:16.419Z,971.07
2018-01-18T00:39:16.410Z,971.13
2018-01-18T00:40:16.407Z,971.11
2018-01-18T00:41:16.399Z,971.10
2018-01-18T00:42:16.419Z,971.14
2018-01-18T00:43:16.397Z,971.08
2018-01-18T00:44:16.368Z,971.12
2018-01-18T00:45:16.360Z,971.15
2018-01-18T00:46:16.361Z,971.14
2018-01-18T00:47:16.351Z,971.18
2018-01-18T00:48:16.377Z,971.20
2018-01-18T00:49:16.322Z,971.12
2018-01-18T00:50:16.373Z,971.13
2018-01-18T00:51:16.319Z,971.16
2018-01-18T00:52:16.304Z,971.18
2018-01-18T00:53:16.313Z,971.14
2018-01-18T00:54:16.316Z,971.15
2018-01-18T00:55:16.346Z,971.13
2018-01-18T00:56:16.289Z,971.13
2018-01-18T00:57:16.259Z,971.13
2018-01-18T00:58:16.268Z,971.14
2018-01-18T00:59:16.283Z,971.16
2018-01-18T01:00:16.275Z,971.19
2018-01-18T01:01:16.256Z,971.18
2018-01-18T01:02:16.228Z,971.18
2018-01-18T01:03:16.209Z,971.23
2018-01-18T01:04:16.212Z,971.23
2018-01-18T01:05:16.305Z,971.18
2018-01-18T01:06:16.176Z,971.16
2018-01-18T01:07:16.206Z,971.10
2018-01-18T01:08:16.169Z,971.13
2018-01-18T01:09:16.203Z,971.14
2018-01-18T01:10:16.152Z,971.15
2018-01-18T01:11:16.143Z,971.18
2018-01-18T01:12:16.138Z,971.20
2018-01-18T01:13:16.126Z,971.16
2018-01-18T01:14:16.109Z,971.17
2018-01-18T01:15:16.107Z,971.23
2018-01-18T01:16:16.093Z,971.27
2018-01-18T01:17:16.097Z,971.25
2018-01-18T01:18:16.076Z,971.28
2018-01-18T01:19:16.067Z,971.23
2018-01-18T01:20:16.110Z,971.23
2018-01-18T01:21:16.057Z,971.20
2018-01-18T01:22:16.046Z,971.21
2018-01-18T01:23:16.037Z,971.18
2018-01-18T01:24:16.024Z,971.20
2018-01-18T01:25:16.041Z,971.21
2018-01-18T01:26:16.023Z,971.21
2018-01-18T01:27:16.031Z,971.20
2018-01-18T01:28:15.990Z,971.17
2018-01-18T01:29:16.002Z,971.21
2018-01-18T01:30:15.982Z,971.20
2018-01-18T01:31:15.971Z,971.19
2018-01-18T01:32:15.960Z,971.15
2018-01-18T01:33:15.985Z,971.17
2018-01-18T01:34:15.982Z,971.17
2018-01-18T01:35:15.939Z,971.17
2018-01-18T01:36:15.926Z,971.18
2018-01-18T01:37:15.924Z,971.16
2018-01-18T01:38:15.915Z,971.16
2018-01-18T01:39:15.937Z,971.21
2018-01-18T01:40:15.904Z,971.20
2018-01-18T01:41:15.911Z,971.28
2018-01-18T01:42:15.911Z,971.24
2018-01-18T01:43:15.885Z,971.29
2018-01-18T01:44:15.900Z,971.29
2018-01-18T01:45:16.537Z,971.28
2018-01-18T01:46:15.854Z,971.28
2018-01-18T01:47:15.834Z,971.24
2018-01-18T01:48:15.833Z,971.23
2018-01-18T01:49:15.821Z,971.19
2018-01-18T01:50:15.874Z,971.25
2018-01-18T01:51:15.808Z,971.21
2018-01-18T01:52:15.810Z,971.20
2018-01-18T01:53:15.817Z,971.22
2018-01-18T01:54:15.824Z,971.17
2018-01-18T01:55:15.769Z,971.18
2018-01-18T01:56:15.810Z,971.17
2018-01-18T01:57:15.811Z,971.15
2018-01-18T01:58:15.781Z,971.19
2018-01-18T01:59:15.737Z,971.13
2018-01-18T02:00:15.745Z,971.15
2018-01-18T02:01:15.714Z,971.14
2018-01-18T02:02:15.724Z,971.13
2018-01-18T02:03:15.697Z,971.16
2018-01-18T02:04:15.790Z,971.11
2018-01-18T02:05:24.326Z,971.14
2018-01-18T02:07:11.078Z,971.06
2018-01-18T02:08:11.018Z,971.08
2018-01-18T02:10:07.003Z,971.00
2018-01-18T02:11:07.031Z,971.02
2018-01-18T02:12:06.983Z,971.03
2018-01-18T02:13:07.022Z,971.04
2018-01-18T02:14:06.884Z,971.14
2018-01-18T02:15:07.357Z,971.09
2018-01-18T02:16:06.944Z,971.06
2018-01-18T02:17:07.004Z,971.02
2018-01-18T02:18:06.881Z,971.02
2018-01-18T02:19:06.855Z,971.01
2018-01-18T02:20:06.926Z,971.03
2018-01-18T02:21:06.843Z,971.00
2018-01-18T02:22:06.867Z,970.98
2018-01-18T02:23:06.841Z,970.99
2018-01-18T02:24:06.769Z,971.00
2018-01-18T02:25:06.817Z,971.00
2018-01-18T02:26:06.781Z,970.96
2018-01-18T02:27:06.783Z,970.92
2018-01-18T02:28:06.769Z,970.95
2018-01-18T02:29:06.792Z,970.85
2018-01-18T02:30:06.718Z,970.90
2018-01-18T02:31:06.775Z,970.83
2018-01-18T02:32:06.798Z,970.87
2018-01-18T02:33:06.719Z,970.86
2018-01-18T02:34:06.698Z,970.92
2018-01-18T02:35:06.694Z,970.96
2018-01-18T02:36:06.775Z,970.95
2018-01-18T02:37:06.730Z,970.95
2018-01-18T02:38:06.681Z,970.94
2018-01-18T02:39:06.655Z,970.99
2018-01-18T02:40:06.821Z,970.99
2018-01-18T02:41:06.630Z,971.04
2018-01-18T02:42:06.613Z,971.00
2018-01-18T02:43:06.599Z,971.02
2018-01-18T02:44:06.594Z,971.00
2018-01-18T02:45:06.584Z,970.98
2018-01-18T02:46:06.588Z,970.95
2018-01-18T02:47:06.577Z,970.98
2018-01-18T02:48:06.605Z,970.92
2018-01-18T02:49:06.564Z,970.91
2018-01-18T02:50:06.556Z,970.93
2018-01-18T02:51:06.537Z,970.92
2018-01-18T02:52:06.641Z,970.86
2018-01-18T02:53:06.529Z,970.87
2018-01-18T02:54:06.667Z,970.82
2018-01-18T02:55:06.549Z,970.86
2018-01-18T02:56:06.488Z,970.89
2018-01-18T02:57:06.478Z,970.87
2018-01-18T02:58:06.512Z,970.87
2018-01-18T02:59:06.464Z,970.91
2018-01-18T03:00:06.455Z,970.87
2018-01-18T03:01:06.509Z,970.88
2018-01-18T03:02:06.434Z,970.86
2018-01-18T03:03:06.431Z,970.84
2018-01-18T03:04:06.429Z,970.86
2018-01-18T03:05:06.451Z,970.87
2018-01-18T03:06:06.503Z,970.79
2018-01-18T03:07:06.446Z,970.82
2018-01-18T03:08:06.404Z,970.85
2018-01-18T03:09:06.400Z,970.84
2018-01-18T03:10:06.403Z,970.79
2018-01-18T03:11:06.388Z,970.79
2018-01-18T03:12:06.346Z,970.79
2018-01-18T03:13:06.363Z,970.75
2018-01-18T03:14:06.347Z,970.72
2018-01-18T03:15:06.324Z,970.72
2018-01-18T03:16:06.323Z,970.79
2018-01-18T03:17:06.305Z,970.74
2018-01-18T03:18:06.300Z,970.74
2018-01-18T03:19:06.295Z,970.76
2018-01-18T03:20:06.284Z,970.72
2018-01-18T03:21:06.271Z,970.70
2018-01-18T03:22:06.266Z,970.73
2018-01-18T03:23:06.260Z,970.72
2018-01-18T03:24:06.270Z,970.68
2018-01-18T03:25:06.247Z,970.68
2018-01-18T03:26:06.243Z,970.66
2018-01-18T03:27:06.222Z,970.70
2018-01-18T03:28:06.237Z,970.66
2018-01-18T03:29:06.221Z,970.63
2018-01-18T03:30:06.215Z,970.65
2018-01-18T03:31:06.195Z,970.67
2018-01-18T03:32:06.193Z,970.67
2018-01-18T03:33:06.178Z,970.61
2018-01-18T03:34:06.214Z,970.66
2018-01-18T03:35:06.160Z,970.72
2018-01-18T03:36:06.211Z,970.67
2018-01-18T03:37:06.225Z,970.62
2018-01-18T03:38:06.130Z,970.60
2018-01-18T03:39:06.129Z,970.65
2018-01-18T03:40:06.119Z,970.62
2018-01-18T03:41:06.114Z,970.65
2018-01-18T03:42:06.102Z,970.61
2018-01-18T03:43:06.098Z,970.59
2018-01-18T03:44:06.086Z,970.61
2018-01-18T03:45:06.076Z,970.52
2018-01-18T03:46:06.084Z,970.59
2018-01-18T03:47:06.062Z,970.53
2018-01-18T03:48:06.052Z,970.58
2018-01-18T03:49:06.049Z,970.49
2018-01-18T03:50:06.040Z,970.45
2018-01-18T03:51:06.030Z,970.49
2018-01-18T03:52:06.051Z,970.52
2018-01-18T03:53:06.015Z,970.43
2018-01-18T03:54:06.009Z,970.47
2018-01-18T03:55:06.024Z,970.44
2018-01-18T03:56:06.001Z,970.41
2018-01-18T03:57:05.979Z,970.39
2018-01-18T03:58:05.978Z,970.37
2018-01-18T03:59:05.998Z,970.37
2018-01-18T04:00:05.970Z,970.32
2018-01-18T04:01:05.960Z,970.31
2018-01-18T04:02:05.935Z,970.33
2018-01-18T04:03:06.479Z,970.31
2018-01-18T04:04:05.920Z,970.27
2018-01-18T04:05:05.940Z,970.25
2018-01-18T04:06:05.934Z,970.27
2018-01-18T04:07:05.905Z,970.26
2018-01-18T04:08:05.911Z,970.28
2018-01-18T04:09:05.899Z,970.21
2018-01-18T04:10:05.910Z,970.22
2018-01-18T04:11:05.882Z,970.19
2018-01-18T04:12:05.857Z,970.19
2018-01-18T04:13:05.873Z,970.18
2018-01-18T04:14:05.928Z,970.19
2018-01-18T04:15:05.834Z,970.20
2018-01-18T04:16:05.861Z,970.17
2018-01-18T04:17:05.841Z,970.16
2018-01-18T04:18:05.810Z,970.11
2018-01-18T04:19:05.794Z,970.11
2018-01-18T04:20:05.790Z,970.08
2018-01-18T04:21:05.874Z,970.09
2018-01-18T04:22:05.772Z,970.08
2018-01-18T04:23:05.762Z,970.10
2018-01-18T04:24:05.763Z,970.16
2018-01-18T04:25:05.784Z,970.07
2018-01-18T04:26:05.781Z,970.11
2018-01-18T04:27:05.738Z,970.08
2018-01-18T04:28:05.762Z,970.16
2018-01-18T04:29:05.720Z,970.19
2018-01-18T04:30:05.731Z,970.15
2018-01-18T04:31:05.741Z,970.16
2018-01-18T04:32:05.716Z,970.10
2018-01-18T04:33:06.482Z,970.19
2018-01-18T04:34:05.685Z,970.14
2018-01-18T04:35:05.680Z,970.17
2018-01-18T04:36:05.685Z,970.08
2018-01-18T04:37:05.662Z,970.07
2018-01-18T04:38:05.661Z,970.04
2018-01-18T04:39:05.630Z,969.99
2018-01-18T04:40:06.514Z,970.01
2018-01-18T04:41:05.628Z,969.99
2018-01-18T04:42:05.605Z,970.02
2018-01-18T04:43:05.605Z,969.97
2018-01-18T04:44:05.614Z,969.90
2018-01-18T04:45:05.599Z,969.91
2018-01-18T04:46:05.612Z,969.82
2018-01-18T04:47:05.577Z,969.75
2018-01-18T04:48:05.663Z,969.74
2018-01-18T04:49:05.593Z,969.70
2018-01-18T04:50:05.552Z,969.72
2018-01-18T04:51:05.592Z,969.70
2018-01-18T04:52:05.574Z,969.68
2018-01-18T04:53:05.564Z,969.65
2018-01-18T04:54:05.547Z,969.64
2018-01-18T04:55:05.503Z,969.63
2018-01-18T04:56:05.554Z,969.60
2018-01-18T04:57:05.492Z,969.56
2018-01-18T04:58:05.516Z,969.52
2018-01-18T04:59:05.525Z,969.43
2018-01-18T05:00:05.486Z,969.37
2018-01-18T05:01:05.596Z,969.37
2018-01-18T05:02:05.564Z,969.38
2018-01-18T05:03:05.502Z,969.32
2018-01-18T05:04:05.441Z,969.26
2018-01-18T05:05:05.465Z,969.24
2018-01-18T05:06:05.557Z,969.29
2018-01-18T05:07:05.459Z,969.24
2018-01-18T05:08:05.494Z,969.28
2018-01-18T05:09:05.418Z,969.27
2018-01-18T05:10:05.429Z,969.29
2018-01-18T05:11:05.391Z,969.24
2018-01-18T05:12:05.420Z,969.23
2018-01-18T05:13:05.448Z,969.15
2018-01-18T05:14:05.360Z,969.14
2018-01-18T05:15:05.380Z,969.16
2018-01-18T05:16:05.355Z,969.11
2018-01-18T05:17:05.346Z,969.12
2018-01-18T05:18:05.337Z,969.10
2018-01-18T05:19:05.344Z,969.08
2018-01-18T05:20:05.379Z,969.02
2018-01-18T05:21:05.975Z,968.99
2018-01-18T05:22:05.300Z,968.95
2018-01-18T05:23:05.323Z,969.04
2018-01-18T05:24:05.303Z,968.97
2018-01-18T05:25:05.316Z,968.89
2018-01-18T05:26:05.286Z,968.94
2018-01-18T05:27:05.337Z,968.87
2018-01-18T05:28:05.240Z,968.90
2018-01-18T05:29:05.323Z,968.92
2018-01-18T05:30:18.582Z,968.89
2018-01-18T05:32:15.793Z,968.79
2018-01-18T05:33:15.867Z,968.77
2018-01-18T05:35:27.253Z,968.78
2018-01-18T05:36:27.125Z,968.73
2018-01-18T05:37:27.218Z,968.76
2018-01-18T05:38:27.156Z,968.75
2018-01-18T05:39:29.615Z,968.71
2018-01-18T05:40:27.102Z,968.71
2018-01-18T05:41:28.649Z,968.72
2018-01-18T05:42:27.182Z,968.69
2018-01-18T05:43:27.124Z,968.68
2018-01-18T05:44:27.114Z,968.66
2018-01-18T05:45:29.652Z,968.63
2018-01-18T05:46:28.608Z,968.60
2018-01-18T05:47:28.669Z,968.57
2018-01-18T05:48:27.071Z,968.66
2018-01-18T05:49:28.742Z,968.56
2018-01-18T05:50:27.047Z,968.54
2018-01-18T05:51:26.998Z,968.48
2018-01-18T05:52:26.995Z,968.47
2018-01-18T05:53:28.614Z,968.46
2018-01-18T05:54:27.971Z,968.41
2018-01-18T05:55:26.977Z,968.38
2018-01-18T05:56:26.962Z,968.36
2018-01-18T05:57:26.955Z,968.38
2018-01-18T05:58:26.983Z,968.32
2018-01-18T05:59:26.941Z,968.27
2018-01-18T06:00:26.980Z,968.23
2018-01-18T06:01:26.927Z,968.15
2018-01-18T06:02:26.946Z,968.14
2018-01-18T06:03:26.904Z,968.13
2018-01-18T06:04:26.904Z,968.01
2018-01-18T06:05:26.887Z,968.01
2018-01-18T06:06:26.891Z,967.90
2018-01-18T06:07:26.871Z,967.88
2018-01-18T06:08:26.870Z,967.77
2018-01-18T06:09:28.637Z,967.79
2018-01-18T06:10:26.859Z,967.81
2018-01-18T06:11:26.880Z,967.79
2018-01-18T06:12:26.839Z,967.82
2018-01-18T06:13:26.883Z,967.79
2018-01-18T06:14:26.848Z,967.71
2018-01-18T06:15:26.820Z,967.72
2018-01-18T06:16:26.804Z,967.67
2018-01-18T06:17:26.793Z,967.72
2018-01-18T06:18:26.796Z,967.55
2018-01-18T06:19:26.861Z,967.54
2018-01-18T06:20:26.852Z,967.56
2018-01-18T06:21:26.776Z,967.51
2018-01-18T06:22:26.758Z,967.53
2018-01-18T06:23:28.607Z,967.52
2018-01-18T06:24:26.738Z,967.49
2018-01-18T06:25:26.751Z,967.44
2018-01-18T06:26:26.727Z,967.43
2018-01-18T06:27:26.718Z,967.45
2018-01-18T06:28:26.710Z,967.40
2018-01-18T06:29:26.707Z,967.41
2018-01-18T06:30:26.700Z,967.37
2018-01-18T06:31:26.698Z,967.35
2018-01-18T06:32:26.678Z,967.34
2018-01-18T06:33:26.689Z,967.28
2018-01-18T06:34:28.607Z,967.24
2018-01-18T06:35:26.666Z,967.27
2018-01-18T06:36:26.664Z,967.31
2018-01-18T06:37:28.644Z,967.33
2018-01-18T06:38:26.672Z,967.28
2018-01-18T06:39:26.630Z,967.28
2018-01-18T06:40:26.631Z,967.28
2018-01-18T06:41:26.629Z,967.21
2018-01-18T06:42:26.622Z,967.27
2018-01-18T06:43:26.610Z,967.21
2018-01-18T06:44:29.109Z,967.14
2018-01-18T06:45:26.606Z,967.10
2018-01-18T06:46:26.580Z,967.09
2018-01-18T06:47:28.128Z,967.09
2018-01-18T06:48:26.585Z,967.11
2018-01-18T06:49:26.554Z,967.11
2018-01-18T06:50:26.557Z,967.11
2018-01-18T06:51:26.557Z,967.04
2018-01-18T06:52:26.530Z,967.03
2018-01-18T06:53:26.530Z,966.95
2018-01-18T06:54:26.579Z,966.98
2018-01-18T06:55:26.507Z,966.96
2018-01-18T06:56:26.508Z,966.99
2018-01-18T06:57:26.500Z,966.91
2018-01-18T06:58:26.485Z,966.92
2018-01-18T06:59:26.489Z,966.86
2018-01-18T07:00:26.475Z,966.90
2018-01-18T07:01:26.462Z,966.94
2018-01-18T07:02:26.473Z,966.89
2018-01-18T07:03:26.451Z,966.87
2018-01-18T07:04:26.447Z,966.85
2018-01-18T07:05:26.441Z,966.78
2018-01-18T07:06:26.437Z,966.75
2018-01-18T07:07:26.425Z,966.71
2018-01-18T07:08:26.440Z,966.74
2018-01-18T07:09:26.408Z,966.69
2018-01-18T07:10:26.398Z,966.67
2018-01-18T07:11:26.396Z,966.59
2018-01-18T07:12:26.390Z,966.53
2018-01-18T07:13:26.376Z,966.42
2018-01-18T07:14:26.370Z,966.44
2018-01-18T07:15:26.380Z,966.35
2018-01-18T07:16:26.364Z,966.33
2018-01-18T07:17:26.353Z,966.30
2018-01-18T07:18:26.347Z,966.28
2018-01-18T07:19:26.336Z,966.29
2018-01-18T07:20:26.330Z,966.21
2018-01-18T07:21:26.322Z,966.20
2018-01-18T07:22:26.311Z,966.14
2018-01-18T07:23:26.309Z,966.12
2018-01-18T07:24:26.297Z,966.09
2018-01-18T07:25:26.295Z,966.06
2018-01-18T07:26:26.279Z,966.01
2018-01-18T07:27:26.281Z,965.96
2018-01-18T07:28:26.294Z,965.85
2018-01-18T07:29:26.261Z,965.76
2018-01-18T07:30:26.253Z,965.72
2018-01-18T07:31:26.246Z,965.70
2018-01-18T07:32:26.242Z,965.57
2018-01-18T07:33:26.236Z,965.53
2018-01-18T07:34:26.242Z,965.53
2018-01-18T07:35:26.229Z,965.47
2018-01-18T07:36:26.212Z,965.52
2018-01-18T07:37:26.210Z,965.40
2018-01-18T07:38:26.197Z,965.37
2018-01-18T07:39:26.191Z,965.26
2018-01-18T07:40:26.184Z,965.27
2018-01-18T07:41:26.180Z,965.21
2018-01-18T07:42:26.213Z,965.17
2018-01-18T07:43:26.158Z,965.16
2018-01-18T07:44:26.155Z,965.04
2018-01-18T07:45:26.151Z,965.00
2018-01-18T07:46:26.148Z,965.00
2018-01-18T07:47:26.135Z,964.96
2018-01-18T07:48:26.122Z,964.91
2018-01-18T07:49:26.118Z,964.93
2018-01-18T07:50:26.112Z,964.88
2018-01-18T07:51:26.116Z,964.88
2018-01-18T07:52:26.097Z,964.86
2018-01-18T07:53:26.091Z,964.85
2018-01-18T07:54:26.081Z,964.75
2018-01-18T07:55:26.080Z,964.76
2018-01-18T07:56:26.082Z,964.69
2018-01-18T07:57:26.073Z,964.66
2018-01-18T07:58:26.063Z,964.69
2018-01-18T07:59:26.061Z,964.63
2018-01-18T08:00:26.069Z,964.55
2018-01-18T08:01:26.054Z,964.43
2018-01-18T08:02:26.029Z,964.35
2018-01-18T08:03:26.041Z,964.34
2018-01-18T08:04:26.019Z,964.26
2018-01-18T08:05:26.012Z,964.20
2018-01-18T08:06:26.016Z,964.14
2018-01-18T08:07:26.002Z,964.13
2018-01-18T08:08:25.992Z,964.11
2018-01-18T08:09:25.977Z,964.01
2018-01-18T08:10:25.975Z,964.03
2018-01-18T08:11:25.971Z,963.96
2018-01-18T08:12:25.956Z,963.93
2018-01-18T08:13:26.021Z,963.89
2018-01-18T08:14:25.970Z,963.85
2018-01-18T08:15:25.957Z,963.80
2018-01-18T08:16:27.623Z,963.71
2018-01-18T08:17:25.924Z,963.66
2018-01-18T08:18:25.932Z,963.66
2018-01-18T08:19:27.674Z,963.65
2018-01-18T08:20:27.636Z,963.58
2018-01-18T08:21:25.896Z,963.55
2018-01-18T08:22:25.944Z,963.48
2018-01-18T08:23:25.934Z,963.45
2018-01-18T08:24:25.886Z,963.41
2018-01-18T08:25:25.891Z,963.27
2018-01-18T08:26:25.887Z,963.25
2018-01-18T08:27:25.877Z,963.21
2018-01-18T08:28:25.853Z,963.19
2018-01-18T08:29:25.870Z,963.12
2018-01-18T08:30:25.869Z,963.06
2018-01-18T08:31:25.829Z,963.02
2018-01-18T08:32:25.823Z,962.95
2018-01-18T08:33:25.865Z,962.86
2018-01-18T08:34:25.811Z,962.75
2018-01-18T08:35:25.824Z,962.69
2018-01-18T08:36:25.800Z,962.66
2018-01-18T08:37:25.834Z,962.61
2018-01-18T08:38:25.795Z,962.53
2018-01-18T08:39:25.799Z,962.51
2018-01-18T08:40:25.768Z,962.43
2018-01-18T08:41:25.771Z,962.37
2018-01-18T08:42:25.758Z,962.25
2018-01-18T08:43:25.756Z,962.20
2018-01-18T08:44:25.742Z,962.14
2018-01-18T08:45:25.738Z,962.10
2018-01-18T08:46:25.744Z,961.95
2018-01-18T08:47:25.746Z,961.98
2018-01-18T08:48:25.716Z,961.98
2018-01-18T08:49:25.714Z,961.89
2018-01-18T08:50:25.699Z,961.78
2018-01-18T08:51:27.662Z,961.81
2018-01-18T08:52:27.633Z,961.68
2018-01-18T08:53:25.679Z,961.59
2018-01-18T08:54:25.674Z,961.52
2018-01-18T08:55:25.677Z,961.56
2018-01-18T08:56:25.668Z,961.44
2018-01-18T08:57:25.668Z,961.41
2018-01-18T08:58:25.649Z,961.39
2018-01-18T08:59:25.656Z,961.39
2018-01-18T09:00:25.657Z,961.47
2018-01-18T09:01:25.634Z,961.40
2018-01-18T09:02:25.634Z,961.27
2018-01-18T09:03:25.620Z,961.21
2018-01-18T09:04:25.608Z,961.10
2018-01-18T09:05:25.604Z,961.07
2018-01-18T09:06:25.614Z,961.01
2018-01-18T09:07:25.591Z,961.07
2018-01-18T09:08:25.586Z,960.97
2018-01-18T09:09:25.578Z,960.93
2018-01-18T09:10:25.569Z,960.80
2018-01-18T09:11:25.559Z,960.87
2018-01-18T09:12:25.556Z,960.90
2018-01-18T09:13:25.549Z,960.95
2018-01-18T09:14:25.543Z,960.98
2018-01-18T09:15:25.542Z,960.88
2018-01-18T09:16:25.551Z,960.85
2018-01-18T09:17:25.537Z,960.74
2018-01-18T09:18:25.519Z,960.81
2018-01-18T09:19:25.511Z,960.79
2018-01-18T09:20:25.505Z,960.72
2018-01-18T09:21:25.502Z,960.66
2018-01-18T09:22:25.552Z,960.59
2018-01-18T09:23:25.494Z,960.60
2018-01-18T09:24:28.148Z,960.57
2018-01-18T09:25:25.478Z,960.63
2018-01-18T09:26:25.469Z,960.51
2018-01-18T09:27:25.461Z,960.28
2018-01-18T09:28:25.482Z,960.24
2018-01-18T09:29:25.457Z,960.23
2018-01-18T09:30:25.452Z,959.85
2018-01-18T09:31:25.445Z,959.78
2018-01-18T09:32:33.126Z,960.03
2018-01-18T09:34:19.894Z,959.99
2018-01-18T09:35:19.826Z,959.96
2018-01-18T09:37:14.323Z,959.94
2018-01-18T09:38:14.229Z,959.79
2018-01-18T09:40:07.643Z,959.73
2018-01-18T09:41:07.636Z,959.75
2018-01-18T09:43:01.522Z,959.66
2018-01-18T09:44:00.935Z,959.60
2018-01-18T09:45:54.323Z,959.72
2018-01-18T09:46:54.307Z,959.47
2018-01-18T09:48:47.728Z,959.64
2018-01-18T09:49:47.734Z,959.47
2018-01-18T09:51:43.071Z,959.39
2018-01-18T09:52:43.099Z,959.06
2018-01-18T09:54:37.501Z,958.82
2018-01-18T09:55:37.404Z,959.19
2018-01-18T09:57:31.780Z,959.20
2018-01-18T09:58:31.768Z,959.26
